Latest Weather Observations for Canberra

IDN60901

Issued at 2:25 pm EST Thursday 21 August 2014 (issued every 10 minutes, with the page automatically refreshed every 10 minutes)

About weather observations | Map of Canberra area stations | Latest observations for Canberra area | Other Formats
Station Details ID: 070351 Name: CANBERRA AIRPORT Lat: -35.31 Lon: 149.20 Height: 577.05 m
Data from the previous 72 hours. | See also: Recent months at Canberra
Date/Time
EST
Tmp

°C
App
Tmp
°C
Dew
Point
°C
Rel
Hum
%
Delta-T

°C
Wind Press
QNH
hPa
Press
MSL
hPa
Rain
since
9 am
mm
Dir
 
Spd
km/h
Gust
km/h
Spd
kts
Gust
kts
21/02:00pm 12.8 7.9 5.2 60 3.6 ESE 20 28 11 15 1028.0 - 0.0
21/01:30pm 13.1 8.6 4.0 54 4.3 E 17 20 9 11 1028.1 - 0.0
21/01:00pm 13.0 8.4 3.7 53 4.3 E 17 24 9 13 1028.3 - 0.0
21/12:30pm 13.8 10.1 4.4 53 4.5 SE 13 17 7 9 1028.7 - 0.0
21/12:00pm 13.8 10.1 4.4 53 4.4 SE 13 20 7 11 1029.1 1030.2 0.0
21/11:30am 12.4 9.1 4.4 58 3.8 SSE 11 17 6 9 1029.6 - 0.0
21/11:00am 12.0 8.9 3.5 56 3.9 SE 9 15 5 8 1029.7 - 0.0
21/10:30am 11.7 8.6 3.7 58 3.7 SSE 9 15 5 8 1029.9 - 0.0
21/10:00am 10.4 7.8 4.1 65 2.9 W 7 11 4 6 1030.0 - 0.0
21/09:30am 8.0 5.3 3.7 74 1.9 WSW 7 9 4 5 1030.1 - 0.0
21/09:00am 6.2 3.3 2.7 78 1.5 S 7 11 4 6 1030.4 1031.5 0.0
21/08:30am 4.7 1.4 2.2 84 1.0 SSE 9 11 5 6 1030.3 - 0.0
21/08:00am 3.7 0.8 1.7 87 0.8 SE 6 9 3 5 1030.1 - 0.0
21/07:30am 2.6 -0.6 0.8 88 0.7 ESE 7 11 4 6 1029.9 - 0.0
21/07:00am 2.1 -1.5 0.3 88 0.7 ESE 9 11 5 6 1029.6 - 0.0
21/06:30am 1.6 -2.8 0.1 90 0.6 ESE 13 17 7 9 1029.2 - 0.0
21/06:00am 1.0 -3.0 0.3 95 0.3 ESE 11 15 6 8 1028.9 1030.0 0.0
21/05:30am -0.4 -3.7 -1.0 96 0.2 SSE 6 9 3 5 1028.6 - 0.0
21/05:00am -1.2 -4.6 -1.8 96 0.2 ESE 6 9 3 5 1028.3 - 0.0
21/04:30am -1.4 -3.7 -2.0 96 0.1 CALM 0 0 0 0 1028.3 - 0.0
21/04:00am -0.9 -3.1 -1.3 97 0.1 CALM 0 0 0 0 1028.3 - 0.0
21/03:30am -0.7 -2.8 -1.1 97 0.1 CALM 0 0 0 0 1028.1 - 0.0
21/03:00am -0.6 -3.9 -1.4 94 0.3 N 6 7 3 4 1028.1 1029.2 0.0
21/02:30am -1.3 -3.6 -2.4 92 0.3 NNW 0 0 0 0 1028.0 - 0.0
21/02:00am 0.3 -1.7 -0.3 96 0.2 CALM 0 0 0 0 1028.0 - 0.0
21/01:30am 0.4 -1.6 -0.4 94 0.3 CALM 0 0 0 0 1028.1 - 0.0
21/01:00am 0.4 -1.6 -0.4 94 0.3 CALM 0 0 0 0 1028.1 - 0.0
21/12:30am 1.1 -1.6 0.2 94 0.3 NNW 4 6 2 3 1028.0 - 0.0
21/12:00am 1.2 -1.2 0.0 92 0.5 NE 2 7 1 4 1027.9 1029.0 0.0
 
Date/Time
EST
Tmp

°C
App
Tmp
°C
Dew
Point
°C
Rel
Hum
%
Delta-T

°C
Wind Press
QNH
hPa
Press
MSL
hPa
Rain
since
9 am
mm
Dir
 
Spd
km/h
Gust
km/h
Spd
kts
Gust
kts
20/11:30pm 1.5 -1.8 -0.1 89 0.6 E 7 9 4 5 1027.9 - 0.0
20/11:00pm 2.6 -0.8 1.7 94 0.4 ESE 9 9 5 5 1027.8 - 0.0
20/10:30pm 2.7 -0.8 1.4 91 0.5 SE 9 11 5 6 1027.7 - 0.0
20/10:00pm 4.0 0.8 0.9 80 1.2 ENE 7 7 4 4 1027.7 - 0.0
20/09:30pm 5.6 2.9 2.4 80 1.4 E 6 11 3 6 1027.5 - 0.0
20/09:00pm 5.5 2.1 2.0 78 1.5 E 9 11 5 6 1027.3 1028.3 0.0
20/08:30pm 7.0 3.8 2.9 75 1.8 SE 9 13 5 7 1026.9 - 0.0
20/08:00pm 7.4 5.1 2.7 72 2.0 NNW 4 9 2 5 1026.7 - 0.0
20/07:30pm 7.1 4.5 3.0 75 1.8 ESE 6 11 3 6 1026.2 - 0.0
20/07:00pm 6.6 3.5 1.3 69 2.2 NNW 7 11 4 6 1025.9 - 0.0
20/06:30pm 6.2 2.3 0.9 69 2.2 E 11 11 6 6 1025.5 - 0.0
20/06:00pm 8.2 4.6 0.9 60 3.0 NE 9 11 5 6 1025.1 1026.1 0.0
20/05:30pm 10.9 6.3 1.4 52 4.1 N 15 17 8 9 1024.6 - 0.0
20/05:00pm 12.6 8.1 -0.3 41 5.5 N 13 17 7 9 1024.2 - 0.0
20/04:30pm 14.2 10.3 -4.5 27 7.3 W 7 9 4 5 1024.0 - 0.0
20/04:00pm 14.6 10.5 -3.2 29 7.2 WNW 9 13 5 7 1023.8 - 0.0
20/03:30pm 14.7 11.0 -4.1 27 7.5 W 6 9 3 5 1023.7 - 0.0
20/03:00pm 14.6 11.1 -2.8 30 7.1 SW 6 7 3 4 1023.7 1024.7 0.0
20/02:30pm 14.3 11.2 -3.0 30 7.0 N 4 9 2 5 1023.6 - 0.0
20/02:00pm 13.8 9.6 -1.0 36 6.3 NNE 11 17 6 9 1023.6 - 0.0
20/01:30pm 13.7 10.0 0.0 39 5.9 N 9 15 5 8 1023.8 - 0.0
20/01:00pm 13.4 10.1 0.4 41 5.6 E 7 15 4 8 1024.1 - 0.0
20/12:30pm 12.5 8.7 -0.4 41 5.5 SSW 9 15 5 8 1024.5 - 0.0
20/12:00pm 12.0 8.3 -0.2 43 5.1 SSE 9 13 5 7 1025.0 1026.0 0.0
20/11:30am 11.4 7.8 -2.4 38 5.5 S 7 13 4 7 1025.4 - 0.0
20/11:00am 10.6 6.7 0.9 51 4.1 SSW 11 17 6 9 1025.7 - 0.0
20/10:30am 10.1 5.9 1.7 56 3.6 S 13 17 7 9 1025.9 - 0.0
20/10:00am 8.8 4.8 0.3 55 3.5 SE 11 17 6 9 1026.0 - 0.0
20/09:30am 8.1 4.9 0.8 60 3.0 SW 7 11 4 6 1026.0 - 0.0
20/09:00am 6.5 3.0 1.0 68 2.2 SSW 9 11 5 6 1026.1 1027.2 0.0
20/08:30am 4.9 1.6 0.3 72 1.8 SSW 7 7 4 4 1026.1 - 0.0
20/08:00am 3.8 0.8 0.8 81 1.2 S 6 11 3 6 1025.9 - 0.0
20/07:30am 1.4 -2.3 -0.2 89 0.6 E 9 11 5 6 1025.6 - 0.0
20/07:00am -0.8 -4.8 -2.1 91 0.4 NNW 9 11 5 6 1025.5 - 0.0
20/06:30am -1.0 -5.0 -2.3 91 0.4 E 9 9 5 5 1025.1 - 0.0
20/06:00am -0.8 -3.8 -2.2 90 0.5 N 4 7 2 4 1024.8 1025.8 0.0
20/05:30am -0.5 -3.5 -2.2 88 0.6 N 4 7 2 4 1024.4 - 0.0
20/05:00am 0.3 -3.2 -1.0 91 0.5 NE 7 9 4 5 1024.3 - 0.0
20/04:30am 0.2 -3.1 -1.5 88 0.6 WSW 6 7 3 4 1024.1 - 0.0
20/04:00am 1.4 -1.1 -1.2 83 1.0 ENE 2 7 1 4 1023.8 - 0.0
20/03:30am 1.5 -1.7 -0.7 85 0.8 NW 6 9 3 5 1023.7 - 0.0
20/03:00am 3.5 -0.1 0.4 80 1.2 SSE 9 9 5 5 1023.7 1024.7 0.0
20/02:30am 2.3 -1.5 -0.6 81 1.1 S 9 11 5 6 1023.9 - 0.0
20/02:00am 3.6 -0.3 1.0 83 1.0 S 11 15 6 8 1023.8 - 0.0
20/01:30am 2.0 -0.3 0.1 87 0.7 SSE 2 9 1 5 1024.0 - 0.0
20/01:00am 2.3 -0.9 0.8 90 0.6 SE 7 9 4 5 1023.9 - 0.0
20/12:30am 1.2 -2.5 -0.3 90 0.6 SSE 9 11 5 6 1023.7 - 0.0
20/12:00am 3.3 0.2 1.2 86 0.8 SE 7 9 4 5 1023.7 1024.7 0.0
 
Date/Time
EST
Tmp

°C
App
Tmp
°C
Dew
Point
°C
Rel
Hum
%
Delta-T

°C
Wind Press
QNH
hPa
Press
MSL
hPa
Rain
since
9 am
mm
Dir
 
Spd
km/h
Gust
km/h
Spd
kts
Gust
kts
19/11:30pm 3.2 -0.7 1.3 87 0.8 SE 11 13 6 7 1023.6 - 0.0
19/11:00pm 3.6 0.2 1.6 87 0.8 SE 9 13 5 7 1023.5 - 0.0
19/10:30pm 3.7 -0.2 1.1 83 1.0 SE 11 15 6 8 1023.3 - 0.0
19/10:00pm 5.0 0.7 0.9 75 1.7 S 13 17 7 9 1023.1 - 0.0
19/09:30pm 7.4 2.5 1.9 68 2.3 S 17 24 9 13 1023.1 - 0.0
19/09:00pm 8.0 3.1 2.0 66 2.6 S 17 24 9 13 1022.8 1023.8 0.0
19/08:30pm 8.0 3.1 1.8 65 2.6 S 17 22 9 12 1022.6 - 0.0
19/08:00pm 8.1 4.0 2.1 66 2.6 SSE 13 20 7 11 1022.5 - 0.0
19/07:30pm 7.0 4.0 1.9 70 2.2 S 7 19 4 10 1022.1 - 0.0
19/07:00pm 8.2 3.2 1.4 62 2.9 S 17 24 9 13 1021.8 - 0.0
19/06:30pm 9.4 3.9 1.6 58 3.4 SSE 20 28 11 15 1021.3 - 0.0
19/06:00pm 10.3 4.4 1.7 55 3.7 S 22 33 12 18 1020.7 1021.7 0.0
19/05:30pm 10.9 5.1 2.2 55 3.8 SSE 22 32 12 17 1020.3 - 0.0
19/05:00pm 11.7 6.4 3.0 55 3.9 SSE 20 28 11 15 1020.0 - 0.0
19/04:30pm 12.7 6.6 2.6 50 4.6 S 24 33 13 18 1019.6 - 0.0
19/04:00pm 13.4 6.8 2.3 47 5.0 S 26 33 14 18 1019.4 - 0.0
19/03:30pm 13.5 5.5 1.5 44 5.3 S 33 44 18 24 1019.1 - 0.0
19/03:00pm 13.2 4.4 1.5 45 5.2 S 37 50 20 27 1018.9 1019.9 0.0
19/02:30pm 13.6 5.2 1.6 44 5.4 SSW 35 48 19 26 1018.6 - 0.0
19/02:00pm 14.4 5.1 2.9 46 5.3 SSW 41 50 22 27 1018.4 - 0.0
19/01:30pm 14.2 6.6 3.1 47 5.1 S 32 46 17 25 1018.2 - 0.0
19/01:00pm 14.0 7.0 4.0 51 4.7 S 30 35 16 19 1018.4 - 0.0
19/12:30pm 13.7 6.3 2.0 45 5.3 S 30 41 16 22 1018.5 - 0.0
19/12:00pm 13.2 7.1 3.0 50 4.7 S 24 32 13 17 1018.8 1019.8 0.0
19/11:30am 12.9 7.6 3.0 51 4.5 SSE 20 33 11 18 1019.0 - 0.0
19/11:00am 13.6 7.2 3.1 49 4.8 SSE 26 37 14 20 1019.0 - 0.0
19/10:30am 13.1 8.3 4.5 56 4.1 SSE 19 30 10 16 1019.0 - 0.0
19/10:00am 12.4 5.6 3.1 53 4.2 SSE 28 39 15 21 1018.9 - 0.0
19/09:30am 11.6 6.7 5.3 65 3.0 S 20 26 11 14 1018.8 - 0.0
19/09:00am 11.0 6.4 5.5 69 2.6 S 19 24 10 13 1018.7 1019.7 0.0
19/08:30am 10.4 6.2 5.6 72 2.3 S 17 24 9 13 1018.6 - 0.0
19/08:00am 9.6 5.7 5.4 75 2.0 S 15 24 8 13 1018.3 - 0.0
19/07:30am 9.6 5.7 5.2 74 2.1 S 15 19 8 10 1018.0 - 0.0
19/07:00am 8.0 4.4 5.1 82 1.3 SSE 13 19 7 10 1017.7 - 0.0
19/06:30am 8.2 4.6 5.1 81 1.4 SSE 13 17 7 9 1017.4 - 0.0
19/06:00am 8.8 4.5 5.4 79 1.6 SSE 17 24 9 13 1017.0 1017.9 0.0
19/05:30am 9.1 4.8 5.3 77 1.8 S 17 26 9 14 1016.7 - 0.0
19/05:00am 9.1 3.8 5.1 76 1.9 S 22 30 12 16 1016.5 - 0.0
19/04:30am 9.1 3.8 5.1 76 1.9 S 22 28 12 15 1016.2 - 0.0
19/04:00am 9.2 4.4 4.8 74 2.0 S 19 26 10 14 1016.1 - 0.0
19/03:30am 8.9 4.1 4.5 74 2.0 S 19 24 10 13 1016.0 - 0.0
19/03:00am 9.1 2.6 4.7 74 2.0 S 28 35 15 19 1015.9 1016.8 0.0
19/02:30am 9.4 2.8 4.4 71 2.3 S 28 35 15 19 1015.8 - 0.0
19/02:00am 9.7 2.9 4.9 72 2.2 S 30 37 16 20 1015.7 - 0.0
19/01:30am 9.6 3.2 5.2 74 2.1 S 28 41 15 22 1015.8 - 0.0
19/01:00am 9.7 2.5 5.1 73 2.1 S 32 44 17 24 1015.7 - 0.0
19/12:30am 9.8 3.4 5.0 72 2.2 S 28 35 15 19 1015.6 - 0.0
19/12:00am 9.5 4.6 4.9 73 2.1 S 20 30 11 16 1015.4 1016.3 0.0
 
Date/Time
EST
Tmp

°C
App
Tmp
°C
Dew
Point
°C
Rel
Hum
%
Delta-T

°C
Wind Press
QNH
hPa
Press
MSL
hPa
Rain
since
9 am
mm
Dir
 
Spd
km/h
Gust
km/h
Spd
kts
Gust
kts
18/11:30pm 9.3 3.2 4.9 74 2.0 S 26 35 14 19 1015.4 - 0.0
18/11:00pm 9.5 3.7 4.5 71 2.3 S 24 32 13 17 1015.3 - 0.0
18/10:30pm 9.4 3.2 4.2 70 2.4 S 26 44 14 24 1015.1 - 0.0
18/10:25pm 9.3 2.7 4.1 70 2.4 S 28 44 15 24 1015.1 - 0.0
18/10:00pm 8.9 4.5 4.5 74 2.0 S 17 26 9 14 1015.2 - 0.0
18/09:30pm 9.4 4.9 4.4 71 2.3 S 17 26 9 14 1015.1 - 0.0
18/09:00pm 9.4 4.4 4.4 71 2.3 S 20 26 11 14 1014.9 1015.8 0.0
18/08:30pm 9.3 5.3 4.9 74 2.0 S 15 22 8 12 1014.9 - 0.0
18/08:00pm 9.0 5.0 5.0 76 1.9 S 15 19 8 10 1014.6 - 0.0
18/07:30pm 9.4 4.7 5.2 75 2.0 S 19 26 10 14 1014.3 - 0.0
18/07:00pm 9.4 5.5 5.2 75 2.0 S 15 22 8 12 1014.1 - 0.0
18/06:30pm 9.2 4.4 5.4 77 1.8 SSW 20 26 11 14 1013.8 - 0.0
18/06:00pm 9.5 3.8 5.1 74 2.1 SSW 24 32 13 17 1013.5 1014.4 0.0
18/05:30pm 9.8 5.1 5.2 73 2.2 SSW 19 24 10 13 1013.0 - 0.0
18/05:00pm 10.3 3.9 5.1 70 2.4 S 28 35 15 19 1012.7 - 0.0
18/04:30pm 11.6 5.6 5.3 65 3.0 S 26 33 14 18 1012.1 - 0.0
18/04:00pm 11.7 6.7 6.4 70 2.6 S 22 28 12 15 1011.9 - 0.0
18/03:30pm 12.0 6.4 5.4 64 3.2 S 24 52 13 28 1011.5 - 0.0
18/03:00pm 12.1 6.3 6.2 67 2.9 SSE 26 33 14 18 1011.1 1011.9 0.0
18/02:30pm 12.6 6.2 5.1 60 3.6 S 28 44 15 24 1010.8 - 0.0

Latest Capital City Observations: Canberra | Sydney | Melbourne | Brisbane | Adelaide | Perth | Hobart | Darwin

Other Formats:

Comma delimited format used in spreadsheet applications
http://www.bom.gov.au/fwo/IDN60903/IDN60903.94926.axf

JavaScript Object Notation format (JSON) in row-major order
http://www.bom.gov.au/fwo/IDN60903/IDN60903.94926.json